Time;durP1;ratioP1;P1;durP2;ratioP2;P2;SDS_P1;SDS_P2;PMS_P1;PMS_P2;Temp;Humidity;BMP_temperature;BMP_pressure;BME280_temperature;BME280_humidity;BME280_pressure;Samples;Min_cycle;Max_cycle;Signal;HPM_P1;HPM_P2
2021/03/10 18:45:49;;;;;;;8.50;4.90;;;;;;;5.10;38.50;101204.45;1804479;79;28109;-53
2021/03/10 18:48:17;;;;;;;7.20;4.42;;;;;;;5.08;38.13;101208.75;1794769;80;21275;-68
2021/03/10 18:50:47;;;;;;;6.40;4.35;;;;;;;5.06;38.20;101210.44;1763694;81;21125;-68
2021/03/10 18:53:16;;;;;;;;;;;;;;;5.01;38.08;101214.66;1766087;81;21239;-52
2021/03/10 18:55:44;;;;;;;11.38;4.72;;;;;;;4.99;38.01;101212.44;1734361;82;20159;-52
2021/03/10 18:58:13;;;;;;;7.20;4.47;;;;;;;4.95;38.16;101213.20;1736342;82;21269;-53
2021/03/10 19:00:42;;;;;;;7.30;4.12;;;;;;;4.93;38.03;101210.98;1717971;83;21281;-54
2021/03/10 19:03:11;;;;;;;11.57;5.20;;;;;;;4.90;38.40;101218.33;1736469;83;21138;-53
2021/03/10 19:05:39;;;;;;;9.58;4.72;;;;;;;4.88;38.02;101214.36;1762062;81;21165;-67
2021/03/10 19:08:07;;;;;;;7.62;3.92;;;;;;;4.85;38.06;101219.53;1763457;81;21291;-66
2021/03/10 19:10:38;;;;;;;6.97;3.98;;;;;;;4.97;38.01;101218.94;1723042;82;21167;-67
2021/03/10 19:13:07;;;;;;;9.68;4.92;;;;;;;4.82;38.09;101225.08;1758791;81;21260;-68
2021/03/10 19:15:36;;;;;;;7.33;3.95;;;;;;;4.74;38.48;101222.28;1762057;81;21162;-53
2021/03/10 19:18:05;;;;;;;10.38;4.78;;;;;;;4.72;38.60;101228.75;1763666;81;21587;-67
2021/03/10 19:33:33;;;;;;;8.23;4.30;;;;;;;4.75;38.47;101228.83;1819948;77;22167;-65
2021/03/10 19:36:05;;;;;;;;;;;;;;;4.70;38.37;101233.04;1792575;80;21592;-50
2021/03/10 19:38:33;;;;;;;6.70;3.92;;;;;;;4.65;38.38;101242.47;1762482;81;20147;-65
2021/03/10 19:41:01;;;;;;;6.92;3.55;;;;;;;4.63;38.75;101237.67;1745289;81;21264;-50
2021/03/10 19:43:30;;;;;;;7.83;3.92;;;;;;;4.59;38.52;101242.34;1755253;81;21157;-65
2021/03/10 19:45:58;;;;;;;7.10;4.47;;;;;;;4.51;38.61;101245.16;1711547;83;21609;-65
2021/03/10 19:48:27;;;;;;;9.53;4.55;;;;;;;4.44;38.76;101241.48;1699618;82;21714;-50
2021/03/10 19:50:55;;;;;;;7.85;4.30;;;;;;;4.40;38.78;101239.23;1717772;83;21111;-49
2021/03/10 19:53:24;;;;;;;10.53;4.25;;;;;;;4.35;38.85;101247.78;1708320;84;21135;-65
2021/03/10 19:55:52;;;;;;;7.62;4.25;;;;;;;4.29;38.92;101253.28;1708303;82;21198;-50
2021/03/10 19:58:21;;;;;;;8.00;4.45;;;;;;;4.27;39.07;101256.67;1712048;82;21157;-66
2021/03/10 20:00:52;;;;;;;8.38;4.35;;;;;;;4.22;39.11;101255.25;1697220;82;21288;-66
2021/03/10 20:03:20;;;;;;;6.12;3.60;;;;;;;4.20;39.55;101250.81;1708099;84;21617;-51
2021/03/10 20:05:49;;;;;;;10.50;4.17;;;;;;;4.16;39.80;101249.86;1708022;84;21162;-49
2021/03/10 20:08:17;;;;;;;10.03;4.42;;;;;;;4.13;39.98;101258.49;1707635;82;21127;-49
2021/03/10 20:10:47;;;;;;;8.03;4.05;;;;;;;4.06;40.19;101256.55;1704960;83;21143;-51
2021/03/10 20:13:16;;;;;;;13.75;5.08;;;;;;;4.05;40.56;101254.78;1699932;84;21532;-67
2021/03/10 20:15:44;;;;;;;10.18;4.33;;;;;;;4.09;40.49;101251.42;1699785;84;21184;-67
2021/03/10 20:18:13;;;;;;;12.13;4.85;;;;;;;4.03;40.62;101255.16;1702133;81;21224;-51
2021/03/10 20:20:43;;;;;;;10.08;4.67;;;;;;;4.01;40.68;101259.00;1702213;83;21146;-66
2021/03/10 20:23:12;;;;;;;13.90;5.05;;;;;;;4.00;41.22;101249.41;1700015;83;21147;-50
2021/03/10 20:25:41;;;;;;;9.68;4.60;;;;;;;4.18;40.33;101255.13;1704749;83;21577;-66
2021/03/10 20:28:09;;;;;;;9.58;4.28;;;;;;;3.99;40.36;101260.67;1678955;84;21198;-66
2021/03/10 20:30:37;;;;;;;8.53;4.12;;;;;;;3.95;40.32;101254.94;1678891;84;21190;-52
2021/03/10 20:33:06;;;;;;;10.43;4.40;;;;;;;3.93;40.12;101253.11;1673197;85;21236;-51
2021/03/10 20:35:34;;;;;;;12.60;4.35;;;;;;;3.90;40.24;101244.80;1678025;83;21174;-67
2021/03/10 20:38:02;;;;;;;8.93;4.17;;;;;;;3.90;40.23;101253.02;1718351;83;21189;-51
2021/03/10 20:40:30;;;;;;;9.18;4.05;;;;;;;3.87;40.33;101249.92;1742976;82;21300;-51
2021/03/10 20:43:00;;;;;;;9.35;4.42;;;;;;;3.85;40.39;101252.47;1747546;81;21600;-66
2021/03/10 20:45:37;;;;;;;11.80;3.70;;;;;;;3.83;40.32;101247.63;1750872;81;21264;-66
2021/03/10 20:48:09;;;;;;;9.08;4.08;;;;;;;3.83;40.38;101245.46;1747809;82;21142;-52
2021/03/10 20:50:41;;;;;;;11.38;4.40;;;;;;;3.81;40.30;101251.91;1738567;82;21200;-52
2021/03/10 20:53:10;;;;;;;9.93;4.15;;;;;;;3.79;40.34;101252.72;1730542;81;21186;-68
2021/03/10 20:55:39;;;;;;;11.18;4.05;;;;;;;3.78;40.37;101249.64;1721754;82;21102;-52
2021/03/10 20:58:07;;;;;;;11.30;4.17;;;;;;;3.77;40.47;101247.88;1692154;83;21207;-67
2021/03/10 21:00:34;;;;;;;12.50;4.28;;;;;;;3.77;40.53;101246.14;1753544;81;21142;-67
2021/03/10 21:03:02;;;;;;;11.22;4.97;;;;;;;3.79;40.62;101255.31;1735884;81;21172;-67
2021/03/10 21:05:30;;;;;;;8.93;4.08;;;;;;;3.77;40.38;101247.88;1723746;82;21130;-67
2021/03/10 21:07:58;;;;;;;8.23;3.95;;;;;;;3.75;40.34;101245.25;1743302;82;21130;-67
2021/03/10 21:10:28;;;;;;;13.53;4.80;;;;;;;3.74;40.42;101243.48;1726427;81;21180;-51
2021/03/10 21:12:55;;;;;;;11.30;4.47;;;;;;;3.73;40.52;101246.92;1726543;82;21195;-51
2021/03/10 21:15:23;;;;;;;9.28;4.80;;;;;;;3.74;41.54;101242.17;1723984;83;21165;-67
2021/03/10 21:17:51;;;;;;;11.10;4.53;;;;;;;3.77;42.20;101237.46;1742183;82;21598;-67
2021/03/10 21:20:19;;;;;;;11.12;4.37;;;;;;;3.82;42.28;101236.75;1750072;81;21296;-66
2021/03/10 21:22:47;;;;;;;7.92;4.25;;;;;;;3.83;42.42;101233.30;1736981;82;21186;-52
2021/03/10 21:25:15;;;;;;;13.53;4.40;;;;;;;3.86;42.63;101230.79;1753407;82;21150;-52
2021/03/10 21:27:43;;;;;;;8.58;4.25;;;;;;;3.89;42.47;101226.52;1717632;83;21342;-67
2021/03/10 21:30:12;;;;;;;8.53;4.05;;;;;;;3.89;42.36;101222.20;1739192;81;21171;-68
2021/03/10 21:32:40;;;;;;;8.05;3.77;;;;;;;3.89;42.35;101222.61;1721701;82;21162;-67
2021/03/10 21:35:09;;;;;;;9.18;4.17;;;;;;;3.93;42.97;101225.77;1718483;83;21198;-65
2021/03/10 21:37:36;;;;;;;7.28;3.83;;;;;;;3.92;43.61;101220.09;1748059;82;21166;-52
2021/03/10 21:40:06;;;;;;;8.90;4.15;;;;;;;3.97;43.25;101228.92;1706823;84;21142;-52
2021/03/10 21:42:33;;;;;;;8.48;3.80;;;;;;;3.98;43.14;101215.92;1683872;84;21209;-67
2021/03/10 21:45:01;;;;;;;6.90;3.15;;;;;;;3.95;43.29;101218.47;1697564;84;21131;-52
2021/03/10 21:47:28;;;;;;;6.05;3.12;;;;;;;3.90;41.90;101213.95;1711600;82;21182;-67
2021/03/10 21:49:56;;;;;;;8.40;3.45;;;;;;;3.84;41.49;101212.94;1712232;84;21174;-66
2021/03/10 21:52:24;;;;;;;6.78;3.10;;;;;;;3.81;41.30;101215.45;1718851;82;21591;-52
2021/03/10 21:54:52;;;;;;;5.47;3.02;;;;;;;3.81;40.96;101209.38;1733532;82;21570;-51
2021/03/10 21:57:20;;;;;;;8.20;3.70;;;;;;;3.71;40.88;101207.80;1736105;81;21159;-67
2021/03/10 21:59:48;;;;;;;6.78;3.83;;;;;;;3.68;40.95;101205.10;1739728;82;21150;-67
2021/03/10 22:02:16;;;;;;;7.03;3.22;;;;;;;3.66;40.94;101211.98;1738917;81;21154;-51
2021/03/10 22:04:47;;;;;;;8.45;3.90;;;;;;;3.62;40.71;101202.31;1747703;82;21126;-51
2021/03/10 22:07:14;;;;;;;;;;;;;;;3.54;40.94;101210.31;1727005;81;21213;-67
2021/03/10 22:09:43;;;;;;;5.08;2.65;;;;;;;3.49;40.69;101206.28;1712258;84;20251;-66
2021/03/10 22:12:11;;;;;;;6.03;3.55;;;;;;;3.46;40.79;101204.02;1694124;84;21171;-67
2021/03/10 22:14:39;;;;;;;7.45;3.30;;;;;;;3.40;40.66;101194.28;1738418;82;21150;-50
2021/03/10 22:17:07;;;;;;;7.67;3.30;;;;;;;3.33;40.65;101193.22;1731469;82;21628;-67
2021/03/10 22:19:34;;;;;;;4.87;2.72;;;;;;;3.31;40.85;101199.23;1748086;82;21588;-66
2021/03/10 22:22:05;;;;;;;5.37;2.83;;;;;;;3.26;40.93;101199.97;1708763;84;21163;-50
2021/03/10 22:24:33;;;;;;;7.33;2.83;;;;;;;3.25;40.85;101194.70;1738810;81;21099;-50
2021/03/10 22:27:02;;;;;;;8.23;3.12;;;;;;;3.22;41.03;101196.81;1712416;82;21163;-67
2021/03/10 22:29:30;;;;;;;6.47;3.12;;;;;;;3.23;41.01;101201.58;1712497;84;21625;-50
2021/03/10 22:31:57;;;;;;;7.15;3.33;;;;;;;3.20;41.19;101197.58;1712112;82;21171;-66
2021/03/10 22:34:25;;;;;;;7.25;3.20;;;;;;;3.18;40.96;101201.45;1726908;82;21179;-66
2021/03/10 22:36:53;;;;;;;7.47;3.25;;;;;;;3.22;40.99;101206.31;1712169;84;21204;-67
2021/03/10 22:39:21;;;;;;;8.33;3.70;;;;;;;3.20;41.03;101204.98;1748025;82;21139;-52
2021/03/10 22:41:49;;;;;;;7.03;3.05;;;;;;;3.17;40.72;101203.98;1747254;81;21157;-53
2021/03/10 22:44:18;;;;;;;7.55;3.17;;;;;;;3.13;40.79;101198.69;1748236;82;21178;-51
2021/03/10 22:46:45;;;;;;;6.55;2.98;;;;;;;3.11;40.62;101209.89;1748294;81;21175;-67
2021/03/10 22:49:13;;;;;;;7.67;3.52;;;;;;;3.07;40.77;101208.02;1748077;82;21602;-51
2021/03/10 22:51:41;;;;;;;8.00;3.67;;;;;;;3.03;40.94;101208.36;1748271;81;21271;-52
2021/03/10 22:54:09;;;;;;;7.72;3.40;;;;;;;3.01;40.74;101206.13;1753760;82;21150;-67
2021/03/10 22:56:36;;;;;;;8.33;3.20;;;;;;;2.96;40.73;101200.75;1719695;81;21221;-67
2021/03/10 22:59:04;;;;;;;4.83;2.80;;;;;;;2.93;41.02;101203.69;1719085;82;21613;-51
2021/03/10 23:01:32;;;;;;;8.03;3.52;;;;;;;2.91;40.88;101206.22;1728546;81;21602;-66
2021/03/10 23:04:01;;;;;;;7.67;3.87;;;;;;;2.91;41.00;101212.72;1712439;84;21187;-51
2021/03/10 23:06:31;;;;;;;7.53;3.02;;;;;;;2.88;41.18;101211.75;1712424;82;21155;-51
2021/03/10 23:08:59;;;;;;;5.87;3.30;;;;;;;2.87;41.28;101215.19;1723924;82;21158;-52
2021/03/10 23:11:26;;;;;;;7.78;3.17;;;;;;;2.85;41.17;101219.45;1722416;82;21159;-51
2021/03/10 23:13:55;;;;;;;9.05;3.85;;;;;;;2.83;41.27;101224.61;1716800;83;21187;-52
2021/03/10 23:16:22;;;;;;;7.12;3.75;;;;;;;2.81;41.29;101228.45;1716850;83;21144;-67
2021/03/10 23:18:50;;;;;;;8.13;3.70;;;;;;;2.81;41.55;101223.25;1734939;81;21130;-66
2021/03/10 23:21:18;;;;;;;6.40;3.20;;;;;;;2.80;41.29;101233.17;1748076;81;21569;-51
2021/03/10 23:23:46;;;;;;;6.47;3.25;;;;;;;2.77;41.44;101231.77;1747887;82;21162;-67
2021/03/10 23:26:13;;;;;;;9.43;4.47;;;;;;;2.76;41.44;101237.80;1746693;81;21158;-51
2021/03/10 23:28:41;;;;;;;8.43;3.60;;;;;;;2.82;41.11;101235.41;1728499;81;21135;-67
2021/03/10 23:31:09;;;;;;;7.42;3.47;;;;;;;2.86;41.27;101236.81;1712023;82;21218;-67
2021/03/10 23:33:37;;;;;;;10.70;4.00;;;;;;;2.85;41.33;101235.05;1749175;82;21181;-51
2021/03/10 23:36:09;;;;;;;8.90;3.80;;;;;;;2.83;41.44;101237.19;1743340;81;21172;-67
2021/03/10 23:38:37;;;;;;;8.75;4.37;;;;;;;2.88;41.43;101245.12;1748036;82;21312;-51
2021/03/10 23:41:05;;;;;;;6.53;3.58;;;;;;;2.90;41.20;101238.26;1751429;80;21141;-67
2021/03/10 23:43:32;;;;;;;8.50;3.67;;;;;;;2.88;41.21;101237.32;1751271;82;21302;-66
2021/03/10 23:46:00;;;;;;;9.50;4.03;;;;;;;2.87;41.35;101239.89;1740469;81;21139;-67
2021/03/10 23:48:32;;;;;;;9.35;3.87;;;;;;;2.86;41.28;101238.13;1713287;82;21558;-53
2021/03/10 23:51:00;;;;;;;8.90;3.70;;;;;;;2.86;41.27;101244.62;1743800;82;21104;-51
2021/03/10 23:53:27;;;;;;;9.88;3.62;;;;;;;2.82;41.21;101239.75;1746067;82;21619;-66
2021/03/10 23:55:55;;;;;;;8.68;3.83;;;;;;;2.78;41.12;101241.77;1727235;82;21265;-67
2021/03/10 23:58:22;;;;;;;8.50;3.83;;;;;;;2.72;41.19;101234.63;1734805;82;21138;-51
